sim
Sign-in with your pilot id or email,
or register
Callsign
Passwort

Schedule Details

Flight Number: DLH2173 (1)
Departure: Leipzig Halle Airport (EDDP) at 07:10
Arrival: Munich Airport (EDDM) at 08:10
Route: Lufthansa Passenger Schedule. Enter filed route here before submitting Pirep.

Weather Information
Getting current METAR information for EDDP 250320Z 06003KT 010V090 8000 -RA SCT003 13/12 Q0998 RERA TEMPO BKN004
Getting current METAR information for EDDM 250320Z 22007KT 9999 -RA FEW008 SCT043 13/12 Q1002 NOSIG

Schedule Frequency

Route Map